createdAt,value
2017-04-28T00:00:47.523Z,54.80
2017-04-28T00:03:22.019Z,54.90
2017-04-28T00:05:55.810Z,54.70
2017-04-28T00:08:30.246Z,55.00
2017-04-28T00:11:03.933Z,55.00
2017-04-28T00:13:38.481Z,55.00
2017-04-28T00:16:12.910Z,55.00
2017-04-28T00:18:48.233Z,55.20
2017-04-28T00:21:22.765Z,54.50
2017-04-28T00:23:56.562Z,54.50
2017-04-28T00:26:31.157Z,54.30
2017-04-28T00:29:05.482Z,54.60
2017-04-28T00:31:39.417Z,54.50
2017-04-28T00:34:13.907Z,55.50
2017-04-28T00:36:48.509Z,55.00
2017-04-28T00:39:23.777Z,55.30
2017-04-28T00:41:58.348Z,55.50
2017-04-28T00:44:32.754Z,55.80
2017-04-28T00:47:07.452Z,55.40
2017-04-28T00:49:41.984Z,55.80
2017-04-28T00:52:16.061Z,55.90
2017-04-28T00:54:50.545Z,55.90
2017-04-28T00:57:24.422Z,55.80
2017-04-28T00:59:59.574Z,55.70
2017-04-28T01:02:34.540Z,55.70
2017-04-28T01:05:09.001Z,56.40
2017-04-28T01:07:43.770Z,56.30
2017-04-28T01:10:18.264Z,55.60
2017-04-28T01:12:52.132Z,55.50
2017-04-28T01:15:26.529Z,56.10
2017-04-28T01:18:01.101Z,56.30
2017-04-28T01:20:35.652Z,55.50
2017-04-28T01:23:10.081Z,56.50
2017-04-28T01:25:44.678Z,55.90
2017-04-28T01:28:18.529Z,55.80
2017-04-28T01:30:52.879Z,55.60
2017-04-28T01:33:27.524Z,55.60
2017-04-28T01:36:01.268Z,55.60
2017-04-28T01:38:35.704Z,55.00
2017-04-28T01:41:10.188Z,54.20
2017-04-28T01:43:44.179Z,54.10
2017-04-28T01:46:19.421Z,56.10
2017-04-28T01:48:54.026Z,56.70
2017-04-28T01:51:27.746Z,56.60
2017-04-28T01:54:02.345Z,57.00
2017-04-28T01:56:37.634Z,57.50
2017-04-28T01:59:12.317Z,56.30
2017-04-28T02:01:46.168Z,56.30
2017-04-28T02:04:19.818Z,57.70
2017-04-28T02:06:54.172Z,57.40
2017-04-28T02:09:28.845Z,57.30
2017-04-28T02:12:02.513Z,56.60
2017-04-28T02:14:37.053Z,57.50
2017-04-28T02:17:12.298Z,57.70
2017-04-28T02:19:47.634Z,57.80
2017-04-28T02:22:21.749Z,57.80
2017-04-28T02:24:57.071Z,57.10
2017-04-28T02:27:30.730Z,57.10
2017-04-28T02:30:05.282Z,55.90
2017-04-28T02:32:39.701Z,57.10
2017-04-28T02:35:13.530Z,56.90
2017-04-28T02:37:47.891Z,56.40
2017-04-28T02:40:21.654Z,56.40
2017-04-28T02:42:56.061Z,56.50
2017-04-28T02:45:30.860Z,57.00
2017-04-28T02:48:05.314Z,58.50
2017-04-28T02:50:39.940Z,58.00
2017-04-28T02:53:14.426Z,58.20
2017-04-28T02:55:48.994Z,59.10
2017-04-28T02:58:23.605Z,58.90
2017-04-28T03:00:57.568Z,58.90
2017-04-28T03:03:32.019Z,58.20
2017-04-28T03:06:05.689Z,58.20
2017-04-28T03:08:40.202Z,58.30
2017-04-28T03:11:14.697Z,58.30
2017-04-28T03:13:48.543Z,58.20
2017-04-28T03:16:22.924Z,57.20
2017-04-28T03:18:57.525Z,57.50
2017-04-28T03:21:32.141Z,57.60
2017-04-28T03:24:05.838Z,57.60
2017-04-28T03:26:39.474Z,58.50
2017-04-28T03:29:14.812Z,58.90
2017-04-28T03:31:48.772Z,58.90
2017-04-28T03:34:23.301Z,58.90
2017-04-28T03:36:57.089Z,57.60
2017-04-28T03:39:30.681Z,58.20
2017-04-28T03:42:04.429Z,59.60
2017-04-28T03:44:38.885Z,59.50
2017-04-28T03:47:12.574Z,58.80
2017-04-28T03:49:46.198Z,58.30
2017-04-28T03:52:20.011Z,57.90
2017-04-28T03:54:54.427Z,57.90
2017-04-28T03:57:28.993Z,58.50
2017-04-28T04:00:02.628Z,59.80
2017-04-28T04:02:37.234Z,58.90
2017-04-28T04:05:10.988Z,58.60
2017-04-28T04:07:45.549Z,59.30
2017-04-28T04:10:19.145Z,58.60
2017-04-28T04:12:52.906Z,60.30
2017-04-28T04:15:27.426Z,59.70
2017-04-28T04:18:01.968Z,59.70
2017-04-28T04:20:36.481Z,60.00
2017-04-28T04:23:11.010Z,60.20
2017-04-28T04:25:45.461Z,60.20
2017-04-28T04:28:19.113Z,59.60
2017-04-28T04:30:52.793Z,60.20
2017-04-28T04:33:26.461Z,60.50
2017-04-28T04:36:00.974Z,59.60
2017-04-28T04:38:35.562Z,59.60
2017-04-28T04:41:10.054Z,58.80
2017-04-28T04:43:44.613Z,58.70
2017-04-28T04:46:19.921Z,58.30
2017-04-28T04:48:53.832Z,58.20
2017-04-28T04:51:28.314Z,58.90
2017-04-28T04:54:01.995Z,59.50
2017-04-28T04:56:36.597Z,60.00
2017-04-28T04:59:10.401Z,59.30
2017-04-28T05:01:44.898Z,58.30
2017-04-28T05:04:18.525Z,58.70
2017-04-28T05:06:52.109Z,58.60
2017-04-28T05:09:26.491Z,57.90
2017-04-28T05:12:01.057Z,57.20
2017-04-28T05:14:34.974Z,57.20
2017-04-28T05:17:09.389Z,57.20
2017-04-28T05:19:43.305Z,57.20
2017-04-28T05:22:17.829Z,58.20
2017-04-28T05:24:52.526Z,58.40
2017-04-28T05:27:27.005Z,58.70
2017-04-28T05:30:01.578Z,58.20
2017-04-28T05:32:36.824Z,58.60
2017-04-28T05:35:11.730Z,58.60
2017-04-28T05:37:45.384Z,57.90
2017-04-28T05:40:19.921Z,58.50
2017-04-28T05:42:53.626Z,58.40
2017-04-28T05:45:27.357Z,59.10
2017-04-28T05:48:01.883Z,58.70
2017-04-28T05:50:36.405Z,57.70
2017-04-28T05:53:10.827Z,56.20
2017-04-28T05:55:45.418Z,56.30
2017-04-28T05:58:20.011Z,57.00
2017-04-28T06:00:53.885Z,56.90
2017-04-28T06:03:28.232Z,58.30
2017-04-28T06:06:02.389Z,58.20
2017-04-28T06:08:36.879Z,57.70
2017-04-28T06:11:11.498Z,57.80
2017-04-28T06:13:46.030Z,57.60
2017-04-28T06:16:19.688Z,56.80
2017-04-28T06:18:54.956Z,56.60
2017-04-28T06:21:28.909Z,56.50
2017-04-28T06:24:03.388Z,57.00
2017-04-28T06:26:37.076Z,56.90
2017-04-28T06:29:12.353Z,56.20
2017-04-28T06:31:46.986Z,54.70
2017-04-28T06:34:20.705Z,54.70
2017-04-28T06:36:54.408Z,53.70
2017-04-28T06:39:28.953Z,54.00
2017-04-28T06:42:03.358Z,53.50
2017-04-28T06:44:37.041Z,53.40
2017-04-28T06:47:10.817Z,52.60
2017-04-28T06:49:45.968Z,53.40
2017-04-28T06:52:19.925Z,53.30
2017-04-28T06:54:54.450Z,53.30
2017-04-28T06:57:29.778Z,51.90
2017-04-28T07:00:03.462Z,52.00
2017-04-28T07:02:39.924Z,51.50
2017-04-28T07:05:14.306Z,51.20
2017-04-28T07:07:48.265Z,51.20
2017-04-28T07:10:22.769Z,51.90
2017-04-28T07:12:56.480Z,50.60
2017-04-28T07:15:30.049Z,52.30
2017-04-28T07:18:04.624Z,52.10
2017-04-28T07:20:40.004Z,50.10
2017-04-28T07:23:14.630Z,49.10
2017-04-28T07:25:48.488Z,49.10
2017-04-28T07:28:22.096Z,49.30
2017-04-28T07:30:56.590Z,48.20
2017-04-28T07:33:31.191Z,49.60
2017-04-28T07:36:04.934Z,48.30
2017-04-28T07:38:38.569Z,47.90
2017-04-28T07:41:12.917Z,47.30
2017-04-28T07:43:46.658Z,47.20
2017-04-28T07:46:20.213Z,46.00
2017-04-28T07:48:54.673Z,46.80
2017-04-28T07:51:28.496Z,46.80
2017-04-28T07:54:03.082Z,46.80
2017-04-28T07:56:38.390Z,46.10
2017-04-28T07:59:13.015Z,45.40
2017-04-28T08:01:46.781Z,45.30
2017-04-28T08:04:22.127Z,45.70
2017-04-28T08:06:55.808Z,45.70
2017-04-28T08:09:29.440Z,45.00
2017-04-28T08:12:03.013Z,45.70
2017-04-28T08:14:37.594Z,45.40
2017-04-28T08:17:11.197Z,43.80
2017-04-28T08:19:44.860Z,44.30
2017-04-28T08:22:20.169Z,44.10
2017-04-28T08:24:55.157Z,45.10
2017-04-28T08:27:29.461Z,44.40
2017-04-28T08:30:03.865Z,42.30
2017-04-28T08:32:37.739Z,42.20
2017-04-28T08:35:12.224Z,42.80
2017-04-28T08:37:46.705Z,41.70
2017-04-28T08:40:20.572Z,41.70
2017-04-28T08:42:55.124Z,41.60
2017-04-28T08:45:29.752Z,41.50
2017-04-28T08:48:04.153Z,40.70
2017-04-28T08:50:38.785Z,40.80
2017-04-28T08:53:12.497Z,40.70
2017-04-28T08:55:47.058Z,40.90
2017-04-28T08:58:21.438Z,40.80
2017-04-28T09:00:55.312Z,40.80
2017-04-28T09:03:29.825Z,41.00
2017-04-28T09:06:03.429Z,40.00
2017-04-28T09:08:37.933Z,40.00
2017-04-28T09:11:12.460Z,40.40
2017-04-28T09:13:46.313Z,40.20
2017-04-28T09:16:20.678Z,37.90
2017-04-28T09:18:55.357Z,38.20
2017-04-28T09:21:29.621Z,37.60
2017-04-28T09:24:04.817Z,34.60
2017-04-28T09:26:38.646Z,34.60
2017-04-28T09:29:13.200Z,35.80
2017-04-28T09:31:47.012Z,36.10
2017-04-28T09:34:22.305Z,35.10
2017-04-28T09:36:57.848Z,35.70
2017-04-28T09:39:31.591Z,35.60
2017-04-28T09:42:06.116Z,33.40
2017-04-28T09:44:40.538Z,33.80
2017-04-28T09:47:15.286Z,34.60
2017-04-28T09:49:49.108Z,34.50
2017-04-28T09:52:23.705Z,32.90
2017-04-28T09:54:58.080Z,32.70
2017-04-28T09:57:32.151Z,32.70
2017-04-28T10:00:07.437Z,32.70
2017-04-28T10:02:42.121Z,32.70
2017-04-28T10:05:15.850Z,31.90
2017-04-28T10:07:50.401Z,31.30
2017-04-28T10:10:24.002Z,29.80
2017-04-28T10:12:58.636Z,30.40
2017-04-28T10:15:32.281Z,30.20
2017-04-28T10:18:05.913Z,30.90
2017-04-28T10:20:40.332Z,31.10
2017-04-28T10:23:14.130Z,31.10
2017-04-28T10:25:49.394Z,31.80
2017-04-28T10:28:24.100Z,31.40
2017-04-28T10:30:58.625Z,31.70
2017-04-28T10:33:33.350Z,31.70
2017-04-28T10:36:07.877Z,30.50
2017-04-28T10:38:42.509Z,31.30
2017-04-28T10:41:16.913Z,30.30
2017-04-28T10:43:51.593Z,30.10
2017-04-28T10:46:25.402Z,30.00
2017-04-28T10:48:59.817Z,30.70
2017-04-28T10:51:34.397Z,30.40
2017-04-28T10:54:08.306Z,30.20
2017-04-28T10:56:42.857Z,30.20
2017-04-28T10:59:17.281Z,29.10
2017-04-28T11:01:51.089Z,28.90
2017-04-28T11:04:25.803Z,28.40
2017-04-28T11:06:59.516Z,28.30
2017-04-28T11:09:34.137Z,29.30
2017-04-28T11:12:07.754Z,29.30
2017-04-28T11:14:42.261Z,32.90
2017-04-28T11:17:16.948Z,33.10
2017-04-28T11:19:51.669Z,32.80
2017-04-28T11:22:25.545Z,32.80
2017-04-28T11:24:59.169Z,33.20
2017-04-28T11:27:34.442Z,33.10
2017-04-28T11:30:08.497Z,33.00
2017-04-28T11:32:42.129Z,32.90
2017-04-28T11:35:16.590Z,33.70
2017-04-28T11:37:51.077Z,33.80
2017-04-28T11:40:24.844Z,33.70
2017-04-28T11:43:00.129Z,34.30
2017-04-28T11:45:33.949Z,33.40
2017-04-28T11:48:08.444Z,32.90
2017-04-28T11:50:42.928Z,34.30
2017-04-28T11:53:17.004Z,34.20
2017-04-28T11:55:51.373Z,31.50
2017-04-28T11:58:25.139Z,31.50
2017-04-28T12:00:59.691Z,31.90
2017-04-28T12:03:34.156Z,31.10
2017-04-28T12:06:08.961Z,28.50
2017-04-28T12:08:42.670Z,28.60
2017-04-28T12:11:16.495Z,29.20
2017-04-28T12:13:51.720Z,27.30
2017-04-28T12:16:25.632Z,27.30
2017-04-28T12:19:00.181Z,27.30
2017-04-28T12:21:34.742Z,26.30
2017-04-28T12:24:09.295Z,24.40
2017-04-28T12:26:43.007Z,25.30
2017-04-28T12:29:18.312Z,25.90
2017-04-28T12:31:53.028Z,26.40
2017-04-28T12:34:27.570Z,29.70
2017-04-28T12:37:02.134Z,29.60
2017-04-28T12:39:35.857Z,26.70
2017-04-28T12:42:11.226Z,26.60
2017-04-28T12:44:45.749Z,27.10
2017-04-28T12:47:20.489Z,27.60
2017-04-28T12:49:54.349Z,27.60
2017-04-28T12:52:28.041Z,26.50
2017-04-28T12:55:02.454Z,27.30
2017-04-28T12:57:36.138Z,29.20
2017-04-28T13:00:09.785Z,27.00
2017-04-28T13:02:44.190Z,26.40
2017-04-28T13:05:17.936Z,27.10
2017-04-28T13:07:53.293Z,27.00
2017-04-28T13:10:27.837Z,27.00
2017-04-28T13:13:01.781Z,27.00
2017-04-28T13:15:37.126Z,26.30
2017-04-28T13:18:10.980Z,26.20
2017-04-28T13:20:44.611Z,26.60
2017-04-28T13:23:18.296Z,27.00
2017-04-28T13:25:53.585Z,28.40
2017-04-28T13:28:27.604Z,28.40
2017-04-28T13:31:02.073Z,27.70
2017-04-28T13:33:35.769Z,28.30
2017-04-28T13:36:11.069Z,28.50
2017-04-28T13:38:45.173Z,28.50
2017-04-28T13:41:20.303Z,28.50
2017-04-28T13:43:54.881Z,28.10
2017-04-28T13:46:28.597Z,28.20
2017-04-28T13:49:02.350Z,27.20
2017-04-28T13:51:37.665Z,27.20
2017-04-28T13:54:13.161Z,28.00
2017-04-28T13:56:47.317Z,28.00
2017-04-28T13:59:21.700Z,29.20
2017-04-28T14:01:55.487Z,29.10
2017-04-28T14:04:31.836Z,29.40
2017-04-28T14:07:05.565Z,29.40
2017-04-28T14:09:40.205Z,28.90
2017-04-28T14:12:14.021Z,28.90
2017-04-28T14:14:48.634Z,28.90
2017-04-28T14:17:23.897Z,29.10
2017-04-28T14:19:57.899Z,29.00
2017-04-28T14:22:32.332Z,28.70
2017-04-28T14:25:06.744Z,28.70
2017-04-28T14:27:41.205Z,28.20
2017-04-28T14:30:15.749Z,28.10
2017-04-28T14:32:50.182Z,28.60
2017-04-28T14:35:24.149Z,28.60
2017-04-28T14:37:57.779Z,27.20
2017-04-28T14:40:32.401Z,27.40
2017-04-28T14:43:06.933Z,27.60
2017-04-28T14:45:41.445Z,27.20
2017-04-28T14:48:15.253Z,27.20
2017-04-28T14:50:49.997Z,27.10
2017-04-28T14:53:23.721Z,26.90
2017-04-28T14:55:58.301Z,27.80
2017-04-28T14:58:32.797Z,26.40
2017-04-28T15:01:06.564Z,26.60
2017-04-28T15:03:41.075Z,27.90
2017-04-28T15:06:15.638Z,27.80
2017-04-28T15:08:50.126Z,27.70
2017-04-28T15:11:24.861Z,27.80
2017-04-28T15:13:58.672Z,27.80
2017-04-28T15:16:32.457Z,28.30
2017-04-28T15:19:06.955Z,28.70
2017-04-28T15:21:41.520Z,28.50
2017-04-28T15:24:15.256Z,28.60
2017-04-28T15:26:49.920Z,28.60
2017-04-28T15:29:25.235Z,27.00
2017-04-28T15:31:59.205Z,27.00
2017-04-28T15:34:33.632Z,25.90
2017-04-28T15:37:08.166Z,25.50
2017-04-28T15:39:41.893Z,25.80
2017-04-28T15:42:15.662Z,26.10
2017-04-28T15:44:49.373Z,25.40
2017-04-28T15:47:23.222Z,25.00
2017-04-28T15:49:57.656Z,24.20
2017-04-28T15:52:33.000Z,24.70
2017-04-28T15:55:06.937Z,24.60
2017-04-28T15:57:41.333Z,26.10
2017-04-28T16:00:15.812Z,24.90
2017-04-28T16:02:51.569Z,24.50
2017-04-28T16:05:26.080Z,23.80
2017-04-28T16:08:00.052Z,23.70
2017-04-28T16:10:34.550Z,23.30
2017-04-28T16:13:09.075Z,20.70
2017-04-28T16:15:44.389Z,20.10
2017-04-28T16:18:19.357Z,20.10
2017-04-28T16:20:53.829Z,20.70
2017-04-28T16:23:28.512Z,20.40
2017-04-28T16:26:02.348Z,20.40
2017-04-28T16:28:35.978Z,20.30
2017-04-28T16:31:10.529Z,21.30
2017-04-28T16:33:46.241Z,23.10
2017-04-28T16:36:19.980Z,22.20
2017-04-28T16:38:54.497Z,24.20
2017-04-28T16:41:28.317Z,24.10
2017-04-28T16:44:02.126Z,24.90
2017-04-28T16:46:36.513Z,26.50
2017-04-28T16:49:10.375Z,26.40
2017-04-28T16:51:44.053Z,27.40
2017-04-28T16:54:18.589Z,28.10
2017-04-28T16:56:52.346Z,28.10
2017-04-28T16:59:26.709Z,29.90
2017-04-28T17:02:00.448Z,29.80
2017-04-28T17:04:36.010Z,30.60
2017-04-28T17:07:09.736Z,31.10
2017-04-28T17:09:43.606Z,31.30
2017-04-28T17:12:18.079Z,31.80
2017-04-28T17:14:52.489Z,32.50
2017-04-28T17:17:26.321Z,32.30
2017-04-28T17:20:00.733Z,32.50
2017-04-28T17:22:34.527Z,32.50
2017-04-28T17:25:08.207Z,32.60
2017-04-28T17:27:41.825Z,32.70
2017-04-28T17:30:16.445Z,32.70
2017-04-28T17:32:50.969Z,33.10
2017-04-28T17:35:25.405Z,33.90
2017-04-28T17:37:59.196Z,33.80
2017-04-28T17:40:34.561Z,33.40
2017-04-28T17:43:08.312Z,33.40
2017-04-28T17:45:41.929Z,33.80
2017-04-28T17:48:17.220Z,34.20
2017-04-28T17:50:51.218Z,34.10
2017-04-28T17:53:26.538Z,34.80
2017-04-28T17:56:00.389Z,34.80
2017-04-28T17:58:35.677Z,35.20
2017-04-28T18:01:10.332Z,35.40
2017-04-28T18:03:44.102Z,35.40
2017-04-28T18:06:18.769Z,34.80
2017-04-28T18:08:53.229Z,35.10
2017-04-28T18:11:27.609Z,35.80
2017-04-28T18:14:01.409Z,35.70
2017-04-28T18:16:35.824Z,35.60
2017-04-28T18:19:09.770Z,35.60
2017-04-28T18:21:44.450Z,35.80
2017-04-28T18:24:18.974Z,35.70
2017-04-28T18:26:53.444Z,36.70
2017-04-28T18:29:27.205Z,36.70
2017-04-28T18:32:01.643Z,36.80
2017-04-28T18:34:36.131Z,37.10
2017-04-28T18:37:10.848Z,37.10
2017-04-28T18:39:44.565Z,37.00
2017-04-28T18:42:19.232Z,37.10
2017-04-28T18:44:53.675Z,37.90
2017-04-28T18:47:28.270Z,38.00
2017-04-28T18:50:02.825Z,40.00
2017-04-28T18:52:37.278Z,40.10
2017-04-28T18:55:11.670Z,38.70
2017-04-28T18:57:46.533Z,38.90
2017-04-28T19:00:20.119Z,38.80
2017-04-28T19:02:55.618Z,39.00
2017-04-28T19:05:29.249Z,40.30
2017-04-28T19:08:04.735Z,40.60
2017-04-28T19:10:39.322Z,39.60
2017-04-28T19:13:13.904Z,39.80
2017-04-28T19:15:47.657Z,39.70
2017-04-28T19:18:22.365Z,40.00
2017-04-28T19:20:56.862Z,41.20
2017-04-28T19:23:32.160Z,41.20
2017-04-28T19:26:05.876Z,41.10
2017-04-28T19:28:39.692Z,43.30
2017-04-28T19:31:14.159Z,43.10
2017-04-28T19:33:49.512Z,43.00
2017-04-28T19:36:23.233Z,43.70
2017-04-28T19:38:56.930Z,43.20
2017-04-28T19:41:31.485Z,42.30
2017-04-28T19:44:05.857Z,42.40
2017-04-28T19:46:40.505Z,44.30
2017-04-28T19:49:15.017Z,45.30
2017-04-28T19:51:49.743Z,44.80
2017-04-28T19:54:24.259Z,44.80
2017-04-28T19:56:58.700Z,44.90
2017-04-28T19:59:33.266Z,45.00
2017-04-28T20:02:06.941Z,44.90
2017-04-28T20:04:42.493Z,44.10
2017-04-28T20:07:16.090Z,43.90
2017-04-28T20:09:50.689Z,44.40
2017-04-28T20:12:25.163Z,43.30
2017-04-28T20:15:00.528Z,43.30
2017-04-28T20:17:34.205Z,43.30
2017-04-28T20:20:09.609Z,43.60
2017-04-28T20:22:43.980Z,44.00
2017-04-28T20:25:17.952Z,43.90
2017-04-28T20:27:52.421Z,44.60
2017-04-28T20:30:27.046Z,44.40
2017-04-28T20:33:01.629Z,44.70
2017-04-28T20:35:36.953Z,44.60
2017-04-28T20:38:11.419Z,44.70
2017-04-28T20:40:45.281Z,44.70
2017-04-28T20:43:20.606Z,44.80
2017-04-28T20:45:54.646Z,44.80
2017-04-28T20:48:29.754Z,44.80
2017-04-28T20:51:03.596Z,44.80
2017-04-28T20:53:38.785Z,45.30
2017-04-28T20:56:12.650Z,45.30
2017-04-28T20:58:47.858Z,45.50
2017-04-28T21:01:21.694Z,45.50
2017-04-28T21:03:56.075Z,46.00
2017-04-28T21:06:30.865Z,45.80
2017-04-28T21:09:05.330Z,46.10
2017-04-28T21:11:39.410Z,46.00
2017-04-28T21:14:13.841Z,46.20
2017-04-28T21:16:47.491Z,46.50
2017-04-28T21:19:21.173Z,46.20
2017-04-28T21:21:56.600Z,47.70
2017-04-28T21:24:30.235Z,47.80
2017-04-28T21:27:03.868Z,47.90
2017-04-28T21:29:37.466Z,47.40
2017-04-28T21:32:11.937Z,48.50
2017-04-28T21:34:46.493Z,49.10
2017-04-28T21:37:21.836Z,48.60
2017-04-28T21:39:56.317Z,49.00
2017-04-28T21:42:30.205Z,49.00
2017-04-28T21:45:05.477Z,49.60
2017-04-28T21:47:39.526Z,49.50
2017-04-28T21:50:13.942Z,49.50
2017-04-28T21:52:48.432Z,50.10
2017-04-28T21:55:22.188Z,50.00
2017-04-28T21:57:55.898Z,49.60
2017-04-28T22:00:30.481Z,49.30
2017-04-28T22:03:05.941Z,49.20
2017-04-28T22:05:39.525Z,49.20
2017-04-28T22:08:13.930Z,49.10
2017-04-28T22:10:48.552Z,48.80
2017-04-28T22:13:23.294Z,49.70
2017-04-28T22:16:04.173Z,50.00
2017-04-28T22:18:38.509Z,49.90
2017-04-28T22:21:12.348Z,49.20
2017-04-28T22:23:46.061Z,50.60
2017-04-28T22:26:21.120Z,50.00
2017-04-28T22:28:55.869Z,49.70
2017-04-28T22:31:29.629Z,49.70
2017-04-28T22:34:05.153Z,49.70
2017-04-28T22:36:38.889Z,50.00
2017-04-28T22:39:13.564Z,50.90
2017-04-28T22:41:48.764Z,50.80
2017-04-28T22:44:22.662Z,50.80
2017-04-28T22:46:57.117Z,51.00
2017-04-28T22:49:30.780Z,51.40
2017-04-28T22:52:06.226Z,51.50
2017-04-28T22:54:40.180Z,51.50
2017-04-28T22:57:15.381Z,51.80
2017-04-28T22:59:50.137Z,51.90
2017-04-28T23:02:23.841Z,51.50
2017-04-28T23:04:58.555Z,51.00
2017-04-28T23:07:32.126Z,50.80
2017-04-28T23:10:06.517Z,52.90
2017-04-28T23:12:40.229Z,52.90
2017-04-28T23:15:14.706Z,52.50
2017-04-28T23:17:48.592Z,52.60
2017-04-28T23:20:22.954Z,53.30
2017-04-28T23:22:56.740Z,53.10
2017-04-28T23:25:32.294Z,53.60
2017-04-28T23:28:06.020Z,53.40
2017-04-28T23:30:39.617Z,52.90
2017-04-28T23:33:13.201Z,53.90
2017-04-28T23:35:48.848Z,54.40
2017-04-28T23:38:22.457Z,54.30
2017-04-28T23:40:56.922Z,55.60
2017-04-28T23:43:30.712Z,55.50
2017-04-28T23:46:04.314Z,56.70
2017-04-28T23:48:39.590Z,56.90
2017-04-28T23:51:14.156Z,57.60
2017-04-28T23:53:47.946Z,57.40
2017-04-28T23:56:22.469Z,57.40
2017-04-28T23:58:56.277Z,57.30
